sensor_id;sensor_type;location;lat;lon;timestamp;pressure;altitude;pressure_sealevel;temperature;humidity
62038;BME280;47991;42.974;12.082;2023-05-21T00:01:41;97273.95;;;13.52;91.56
62038;BME280;47991;42.974;12.082;2023-05-21T00:04:08;97275.42;;;13.51;91.69
62038;BME280;47991;42.974;12.082;2023-05-21T00:06:37;97277.32;;;13.53;91.68
62038;BME280;47991;42.974;12.082;2023-05-21T00:09:04;97274.13;;;13.53;91.45
62038;BME280;47991;42.974;12.082;2023-05-21T00:11:32;97271.50;;;13.52;91.74
62038;BME280;47991;42.974;12.082;2023-05-21T00:13:59;97271.48;;;13.52;91.67
62038;BME280;47991;42.974;12.082;2023-05-21T00:16:26;97271.13;;;13.52;91.79
62038;BME280;47991;42.974;12.082;2023-05-21T00:18:52;97273.21;;;13.49;91.83
62038;BME280;47991;42.974;12.082;2023-05-21T00:21:20;97271.98;;;13.49;91.98
62038;BME280;47991;42.974;12.082;2023-05-21T00:23:52;97274.20;;;13.47;91.76
62038;BME280;47991;42.974;12.082;2023-05-21T00:26:22;97270.48;;;13.47;91.73
62038;BME280;47991;42.974;12.082;2023-05-21T00:28:52;97271.16;;;13.44;91.86
62038;BME280;47991;42.974;12.082;2023-05-21T00:31:18;97263.77;;;13.39;92.53
62038;BME280;47991;42.974;12.082;2023-05-21T00:33:45;97264.88;;;13.38;92.32
62038;BME280;47991;42.974;12.082;2023-05-21T00:36:12;97261.58;;;13.40;92.04
62038;BME280;47991;42.974;12.082;2023-05-21T00:38:40;97261.67;;;13.42;91.71
62038;BME280;47991;42.974;12.082;2023-05-21T00:41:11;97260.84;;;13.37;92.24
62038;BME280;47991;42.974;12.082;2023-05-21T00:43:38;97256.53;;;13.29;92.42
62038;BME280;47991;42.974;12.082;2023-05-21T00:46:11;97261.61;;;13.32;92.46
62038;BME280;47991;42.974;12.082;2023-05-21T00:48:39;97261.30;;;13.35;92.40
62038;BME280;47991;42.974;12.082;2023-05-21T00:51:06;97256.67;;;13.39;92.12
62038;BME280;47991;42.974;12.082;2023-05-21T00:53:32;97256.37;;;13.41;92.06
62038;BME280;47991;42.974;12.082;2023-05-21T00:56:03;97257.49;;;13.44;91.89
62038;BME280;47991;42.974;12.082;2023-05-21T00:58:30;97251.02;;;13.45;91.79
62038;BME280;47991;42.974;12.082;2023-05-21T01:00:59;97246.86;;;13.47;91.61
62038;BME280;47991;42.974;12.082;2023-05-21T01:03:29;97246.89;;;13.46;91.29
62038;BME280;47991;42.974;12.082;2023-05-21T01:05:56;97248.06;;;13.44;91.59
62038;BME280;47991;42.974;12.082;2023-05-21T01:08:26;97245.02;;;13.44;91.38
62038;BME280;47991;42.974;12.082;2023-05-21T01:10:55;97242.50;;;13.46;91.34
62038;BME280;47991;42.974;12.082;2023-05-21T01:13:23;97237.13;;;13.46;91.20
62038;BME280;47991;42.974;12.082;2023-05-21T01:15:51;97233.19;;;13.47;91.16
62038;BME280;47991;42.974;12.082;2023-05-21T01:18:20;97228.32;;;13.49;90.93
62038;BME280;47991;42.974;12.082;2023-05-21T01:20:47;97224.45;;;13.48;90.93
62038;BME280;47991;42.974;12.082;2023-05-21T01:23:16;97221.98;;;13.47;91.04
62038;BME280;47991;42.974;12.082;2023-05-21T01:25:43;97223.55;;;13.48;90.93
62038;BME280;47991;42.974;12.082;2023-05-21T01:28:11;97224.29;;;13.47;91.10
62038;BME280;47991;42.974;12.082;2023-05-21T01:30:41;97219.48;;;13.44;91.24
62038;BME280;47991;42.974;12.082;2023-05-21T01:33:22;97215.85;;;13.38;91.56
62038;BME280;47991;42.974;12.082;2023-05-21T01:35:59;97212.19;;;13.37;91.79
62038;BME280;47991;42.974;12.082;2023-05-21T01:41:05;97202.96;;;13.41;91.74
62038;BME280;47991;42.974;12.082;2023-05-21T01:43:37;97204.91;;;13.41;91.39
62038;BME280;47991;42.974;12.082;2023-05-21T01:46:06;97202.84;;;13.39;91.32
62038;BME280;47991;42.974;12.082;2023-05-21T01:48:36;97206.48;;;13.37;91.64
62038;BME280;47991;42.974;12.082;2023-05-21T01:51:04;97204.88;;;13.34;91.64
62038;BME280;47991;42.974;12.082;2023-05-21T01:53:32;97206.10;;;13.30;91.74
62038;BME280;47991;42.974;12.082;2023-05-21T01:55:58;97202.61;;;13.25;92.00
62038;BME280;47991;42.974;12.082;2023-05-21T01:58:26;97203.52;;;13.21;92.09
62038;BME280;47991;42.974;12.082;2023-05-21T02:00:53;97204.92;;;13.21;92.18
62038;BME280;47991;42.974;12.082;2023-05-21T02:03:20;97202.33;;;13.20;92.14
62038;BME280;47991;42.974;12.082;2023-05-21T02:05:47;97201.77;;;13.20;92.07
62038;BME280;47991;42.974;12.082;2023-05-21T02:08:14;97197.38;;;13.20;92.10
62038;BME280;47991;42.974;12.082;2023-05-21T02:10:40;97194.36;;;13.19;92.13
62038;BME280;47991;42.974;12.082;2023-05-21T02:13:07;97195.79;;;13.20;92.34
62038;BME280;47991;42.974;12.082;2023-05-21T02:15:34;97194.52;;;13.20;92.32
62038;BME280;47991;42.974;12.082;2023-05-21T02:18:01;97192.58;;;13.20;91.93
62038;BME280;47991;42.974;12.082;2023-05-21T02:20:30;97190.26;;;13.20;92.09
62038;BME280;47991;42.974;12.082;2023-05-21T02:22:57;97187.73;;;13.20;92.12
62038;BME280;47991;42.974;12.082;2023-05-21T02:25:23;97187.03;;;13.21;92.12
62038;BME280;47991;42.974;12.082;2023-05-21T02:27:51;97185.18;;;13.18;92.16
62038;BME280;47991;42.974;12.082;2023-05-21T02:30:19;97179.45;;;13.16;92.31
62038;BME280;47991;42.974;12.082;2023-05-21T02:32:47;97179.11;;;13.12;92.36
62038;BME280;47991;42.974;12.082;2023-05-21T02:35:15;97180.81;;;13.09;92.49
62038;BME280;47991;42.974;12.082;2023-05-21T02:37:42;97183.33;;;13.09;92.42
62038;BME280;47991;42.974;12.082;2023-05-21T02:40:09;97179.32;;;13.07;92.19
62038;BME280;47991;42.974;12.082;2023-05-21T02:42:38;97174.65;;;13.04;92.26
62038;BME280;47991;42.974;12.082;2023-05-21T02:45:09;97174.58;;;13.03;92.43
62038;BME280;47991;42.974;12.082;2023-05-21T02:47:37;97181.41;;;13.04;92.45
62038;BME280;47991;42.974;12.082;2023-05-21T02:50:05;97180.64;;;13.05;92.21
62038;BME280;47991;42.974;12.082;2023-05-21T02:52:32;97178.16;;;13.05;92.26
62038;BME280;47991;42.974;12.082;2023-05-21T02:54:59;97169.03;;;13.03;92.73
62038;BME280;47991;42.974;12.082;2023-05-21T02:57:26;97166.38;;;12.96;93.59
62038;BME280;47991;42.974;12.082;2023-05-21T02:59:53;97168.14;;;12.85;93.81
62038;BME280;47991;42.974;12.082;2023-05-21T03:02:20;97165.07;;;12.79;94.07
62038;BME280;47991;42.974;12.082;2023-05-21T03:04:46;97165.27;;;12.74;94.33
62038;BME280;47991;42.974;12.082;2023-05-21T03:07:15;97167.52;;;12.71;94.54
62038;BME280;47991;42.974;12.082;2023-05-21T03:09:44;97164.41;;;12.73;94.12
62038;BME280;47991;42.974;12.082;2023-05-21T03:12:12;97161.77;;;12.78;93.78
62038;BME280;47991;42.974;12.082;2023-05-21T03:14:39;97159.38;;;12.79;93.67
62038;BME280;47991;42.974;12.082;2023-05-21T03:17:09;97161.55;;;12.78;93.56
62038;BME280;47991;42.974;12.082;2023-05-21T03:19:40;97167.48;;;12.76;93.63
62038;BME280;47991;42.974;12.082;2023-05-21T03:22:08;97169.94;;;12.77;93.50
62038;BME280;47991;42.974;12.082;2023-05-21T03:24:35;97167.36;;;12.79;93.47
62038;BME280;47991;42.974;12.082;2023-05-21T03:27:02;97165.67;;;12.81;93.42
62038;BME280;47991;42.974;12.082;2023-05-21T03:29:32;97166.55;;;12.85;93.19
62038;BME280;47991;42.974;12.082;2023-05-21T03:32:00;97162.52;;;12.87;93.09
62038;BME280;47991;42.974;12.082;2023-05-21T03:34:27;97159.80;;;12.88;92.72
62038;BME280;47991;42.974;12.082;2023-05-21T03:36:54;97151.52;;;12.87;92.64
62038;BME280;47991;42.974;12.082;2023-05-21T03:39:21;97160.55;;;12.88;92.92
62038;BME280;47991;42.974;12.082;2023-05-21T03:41:47;97160.83;;;12.78;93.63
62038;BME280;47991;42.974;12.082;2023-05-21T03:44:14;97165.13;;;12.73;93.42
62038;BME280;47991;42.974;12.082;2023-05-21T03:46:41;97166.01;;;12.73;93.26
62038;BME280;47991;42.974;12.082;2023-05-21T03:49:08;97162.90;;;12.72;93.06
62038;BME280;47991;42.974;12.082;2023-05-21T03:51:34;97159.57;;;12.71;93.07
62038;BME280;47991;42.974;12.082;2023-05-21T03:54:03;97159.40;;;12.70;93.03
62038;BME280;47991;42.974;12.082;2023-05-21T03:56:30;97159.35;;;12.72;92.84
62038;BME280;47991;42.974;12.082;2023-05-21T03:58:57;97159.34;;;12.76;92.79
62038;BME280;47991;42.974;12.082;2023-05-21T04:01:24;97158.10;;;12.80;92.44
62038;BME280;47991;42.974;12.082;2023-05-21T04:03:51;97157.69;;;12.84;92.23
62038;BME280;47991;42.974;12.082;2023-05-21T04:06:17;97159.21;;;12.90;92.08
62038;BME280;47991;42.974;12.082;2023-05-21T04:08:44;97159.25;;;12.93;92.07
62038;BME280;47991;42.974;12.082;2023-05-21T04:11:11;97160.38;;;12.91;92.11
62038;BME280;47991;42.974;12.082;2023-05-21T04:13:38;97161.10;;;12.91;92.26
62038;BME280;47991;42.974;12.082;2023-05-21T04:16:05;97158.94;;;12.96;92.41
62038;BME280;47991;42.974;12.082;2023-05-21T04:18:34;97159.42;;;12.97;93.27
62038;BME280;47991;42.974;12.082;2023-05-21T04:21:01;97152.48;;;12.90;93.40
62038;BME280;47991;42.974;12.082;2023-05-21T04:23:28;97153.38;;;12.89;93.28
62038;BME280;47991;42.974;12.082;2023-05-21T04:25:55;97156.38;;;12.82;93.27
62038;BME280;47991;42.974;12.082;2023-05-21T04:28:21;97158.16;;;12.82;93.25
62038;BME280;47991;42.974;12.082;2023-05-21T04:30:49;97153.23;;;12.85;93.04
62038;BME280;47991;42.974;12.082;2023-05-21T04:33:16;97159.73;;;12.86;93.29
62038;BME280;47991;42.974;12.082;2023-05-21T04:35:44;97161.16;;;12.89;93.04
62038;BME280;47991;42.974;12.082;2023-05-21T04:38:11;97159.02;;;12.94;93.24
62038;BME280;47991;42.974;12.082;2023-05-21T04:40:39;97166.18;;;13.00;92.97
62038;BME280;47991;42.974;12.082;2023-05-21T04:43:07;97167.36;;;13.05;93.27
62038;BME280;47991;42.974;12.082;2023-05-21T04:45:34;97169.05;;;12.96;94.13
62038;BME280;47991;42.974;12.082;2023-05-21T04:48:01;97175.60;;;12.92;94.07
62038;BME280;47991;42.974;12.082;2023-05-21T04:50:28;97176.80;;;12.89;94.18
62038;BME280;47991;42.974;12.082;2023-05-21T04:52:56;97177.74;;;12.88;93.82
62038;BME280;47991;42.974;12.082;2023-05-21T04:55:24;97176.83;;;12.85;93.76
62038;BME280;47991;42.974;12.082;2023-05-21T04:57:51;97173.27;;;12.85;93.90
62038;BME280;47991;42.974;12.082;2023-05-21T05:00:19;97176.17;;;12.91;94.13
62038;BME280;47991;42.974;12.082;2023-05-21T05:02:46;97176.64;;;13.00;94.05
62038;BME280;47991;42.974;12.082;2023-05-21T05:05:13;97177.11;;;13.09;94.07
62038;BME280;47991;42.974;12.082;2023-05-21T05:07:39;97175.11;;;13.17;93.85
62038;BME280;47991;42.974;12.082;2023-05-21T05:10:07;97177.65;;;13.23;94.44
62038;BME280;47991;42.974;12.082;2023-05-21T05:12:33;97177.71;;;13.30;94.85
62038;BME280;47991;42.974;12.082;2023-05-21T05:15:00;97175.39;;;13.34;94.61
62038;BME280;47991;42.974;12.082;2023-05-21T05:17:27;97173.45;;;13.26;96.27
62038;BME280;47991;42.974;12.082;2023-05-21T05:19:54;97171.39;;;13.25;95.47
62038;BME280;47991;42.974;12.082;2023-05-21T05:22:21;97174.16;;;13.26;94.89
62038;BME280;47991;42.974;12.082;2023-05-21T05:24:48;97176.51;;;13.28;94.44
62038;BME280;47991;42.974;12.082;2023-05-21T05:27:15;97178.59;;;13.34;94.34
62038;BME280;47991;42.974;12.082;2023-05-21T05:29:42;97174.73;;;13.40;94.44
62038;BME280;47991;42.974;12.082;2023-05-21T05:32:09;97176.44;;;13.49;94.55
62038;BME280;47991;42.974;12.082;2023-05-21T05:34:36;97178.41;;;13.56;96.58
62038;BME280;47991;42.974;12.082;2023-05-21T05:37:04;97180.42;;;13.61;96.96
62038;BME280;47991;42.974;12.082;2023-05-21T05:39:31;97186.14;;;13.61;99.01
62038;BME280;47991;42.974;12.082;2023-05-21T05:41:57;97184.30;;;13.70;97.27
62038;BME280;47991;42.974;12.082;2023-05-21T05:44:24;97190.34;;;13.87;96.62
62038;BME280;47991;42.974;12.082;2023-05-21T05:46:51;97188.39;;;14.18;95.54
62038;BME280;47991;42.974;12.082;2023-05-21T05:49:18;97187.85;;;14.53;94.39
62038;BME280;47991;42.974;12.082;2023-05-21T05:51:44;97189.26;;;14.73;92.98
62038;BME280;47991;42.974;12.082;2023-05-21T05:54:11;97182.70;;;14.83;92.45
62038;BME280;47991;42.974;12.082;2023-05-21T05:56:38;97184.72;;;14.94;91.98
62038;BME280;47991;42.974;12.082;2023-05-21T05:59:05;97190.95;;;15.01;91.31
62038;BME280;47991;42.974;12.082;2023-05-21T06:01:32;97189.66;;;15.08;91.21
62038;BME280;47991;42.974;12.082;2023-05-21T06:03:59;97185.52;;;15.15;91.22
62038;BME280;47991;42.974;12.082;2023-05-21T06:06:26;97183.80;;;15.27;91.34
62038;BME280;47991;42.974;12.082;2023-05-21T06:08:53;97182.66;;;15.44;91.35
62038;BME280;47991;42.974;12.082;2023-05-21T06:11:21;97182.88;;;15.62;90.84
62038;BME280;47991;42.974;12.082;2023-05-21T06:13:48;97183.48;;;15.79;91.08
62038;BME280;47991;42.974;12.082;2023-05-21T06:16:15;97182.44;;;16.00;90.48
62038;BME280;47991;42.974;12.082;2023-05-21T06:18:42;97179.70;;;16.19;89.04
62038;BME280;47991;42.974;12.082;2023-05-21T06:21:09;97173.95;;;16.40;88.13
62038;BME280;47991;42.974;12.082;2023-05-21T06:23:35;97170.05;;;16.60;86.17
62038;BME280;47991;42.974;12.082;2023-05-21T06:26:03;97165.45;;;16.74;84.59
62038;BME280;47991;42.974;12.082;2023-05-21T06:28:30;97168.86;;;16.88;82.51
62038;BME280;47991;42.974;12.082;2023-05-21T06:30:57;97169.52;;;17.03;82.89
62038;BME280;47991;42.974;12.082;2023-05-21T06:33:24;97168.83;;;17.14;80.39
62038;BME280;47991;42.974;12.082;2023-05-21T06:35:52;97168.83;;;17.25;79.83
62038;BME280;47991;42.974;12.082;2023-05-21T06:38:19;97167.91;;;17.42;79.92
62038;BME280;47991;42.974;12.082;2023-05-21T06:40:46;97167.00;;;17.56;80.33
62038;BME280;47991;42.974;12.082;2023-05-21T06:43:13;97169.02;;;17.66;74.58
62038;BME280;47991;42.974;12.082;2023-05-21T06:45:40;97175.92;;;17.91;76.86
62038;BME280;47991;42.974;12.082;2023-05-21T06:48:07;97177.81;;;18.19;76.43
62038;BME280;47991;42.974;12.082;2023-05-21T06:50:35;97178.56;;;18.29;74.72
62038;BME280;47991;42.974;12.082;2023-05-21T06:53:01;97182.41;;;18.36;75.23
62038;BME280;47991;42.974;12.082;2023-05-21T06:55:28;97178.54;;;18.45;74.57
62038;BME280;47991;42.974;12.082;2023-05-21T06:57:56;97175.30;;;18.60;76.11
62038;BME280;47991;42.974;12.082;2023-05-21T07:00:23;97171.58;;;18.75;75.45
62038;BME280;47991;42.974;12.082;2023-05-21T07:02:50;97168.12;;;18.99;74.13
62038;BME280;47991;42.974;12.082;2023-05-21T07:05:17;97170.99;;;19.21;74.26
62038;BME280;47991;42.974;12.082;2023-05-21T07:07:44;97172.48;;;19.38;73.71
62038;BME280;47991;42.974;12.082;2023-05-21T07:10:11;97173.38;;;19.62;72.14
62038;BME280;47991;42.974;12.082;2023-05-21T07:12:38;97177.80;;;19.56;70.06
62038;BME280;47991;42.974;12.082;2023-05-21T07:15:06;97172.66;;;19.55;72.66
62038;BME280;47991;42.974;12.082;2023-05-21T07:17:34;97167.44;;;19.74;70.66
62038;BME280;47991;42.974;12.082;2023-05-21T07:20:03;97166.87;;;19.87;67.29
62038;BME280;47991;42.974;12.082;2023-05-21T07:22:33;97165.81;;;19.99;65.60
62038;BME280;47991;42.974;12.082;2023-05-21T07:25:00;97170.67;;;20.15;65.42
62038;BME280;47991;42.974;12.082;2023-05-21T07:27:27;97168.88;;;20.38;67.03
62038;BME280;47991;42.974;12.082;2023-05-21T07:29:54;97171.06;;;20.61;66.95
62038;BME280;47991;42.974;12.082;2023-05-21T07:32:20;97165.53;;;20.79;66.46
62038;BME280;47991;42.974;12.082;2023-05-21T07:34:47;97160.41;;;20.96;67.72
62038;BME280;47991;42.974;12.082;2023-05-21T07:37:14;97159.27;;;21.10;65.47
62038;BME280;47991;42.974;12.082;2023-05-21T07:39:41;97160.92;;;21.28;64.69
62038;BME280;47991;42.974;12.082;2023-05-21T07:42:09;97165.73;;;21.31;62.60
62038;BME280;47991;42.974;12.082;2023-05-21T07:44:36;97165.70;;;21.38;62.37
62038;BME280;47991;42.974;12.082;2023-05-21T07:47:03;97166.00;;;21.23;60.81
62038;BME280;47991;42.974;12.082;2023-05-21T07:49:30;97166.49;;;21.35;61.31
62038;BME280;47991;42.974;12.082;2023-05-21T07:51:56;97166.31;;;21.43;61.47
62038;BME280;47991;42.974;12.082;2023-05-21T07:54:23;97166.09;;;21.28;62.55
62038;BME280;47991;42.974;12.082;2023-05-21T07:56:50;97161.61;;;21.35;62.36
62038;BME280;47991;42.974;12.082;2023-05-21T07:59:17;97163.82;;;21.34;61.59
62038;BME280;47991;42.974;12.082;2023-05-21T08:01:44;97164.51;;;21.24;61.13
62038;BME280;47991;42.974;12.082;2023-05-21T08:04:11;97166.91;;;21.36;62.58
62038;BME280;47991;42.974;12.082;2023-05-21T08:06:38;97168.64;;;21.46;61.04
62038;BME280;47991;42.974;12.082;2023-05-21T08:09:05;97168.30;;;20.98;61.02
62038;BME280;47991;42.974;12.082;2023-05-21T08:11:32;97167.20;;;20.90;63.54
62038;BME280;47991;42.974;12.082;2023-05-21T08:13:59;97167.13;;;20.79;61.52
62038;BME280;47991;42.974;12.082;2023-05-21T08:16:26;97167.89;;;20.84;63.00
62038;BME280;47991;42.974;12.082;2023-05-21T08:18:53;97169.02;;;20.69;61.58
62038;BME280;47991;42.974;12.082;2023-05-21T08:21:21;97164.08;;;20.59;62.11
62038;BME280;47991;42.974;12.082;2023-05-21T08:23:51;97165.13;;;20.41;62.63
62038;BME280;47991;42.974;12.082;2023-05-21T08:26:18;97167.98;;;20.27;62.58
62038;BME280;47991;42.974;12.082;2023-05-21T08:28:44;97168.41;;;20.31;63.68
62038;BME280;47991;42.974;12.082;2023-05-21T08:31:11;97163.81;;;20.46;63.63
62038;BME280;47991;42.974;12.082;2023-05-21T08:33:38;97164.99;;;20.63;62.45
62038;BME280;47991;42.974;12.082;2023-05-21T08:36:06;97162.96;;;20.66;61.97
62038;BME280;47991;42.974;12.082;2023-05-21T08:38:33;97165.65;;;20.57;61.85
62038;BME280;47991;42.974;12.082;2023-05-21T08:41:00;97166.01;;;20.41;62.34
62038;BME280;47991;42.974;12.082;2023-05-21T08:43:28;97155.85;;;20.70;62.17
62038;BME280;47991;42.974;12.082;2023-05-21T08:45:56;97149.42;;;20.94;60.37
62038;BME280;47991;42.974;12.082;2023-05-21T08:48:24;97152.25;;;21.22;60.33
62038;BME280;47991;42.974;12.082;2023-05-21T08:50:52;97153.33;;;21.41;59.32
62038;BME280;47991;42.974;12.082;2023-05-21T08:53:22;97151.84;;;21.68;60.13
62038;BME280;47991;42.974;12.082;2023-05-21T08:55:51;97149.29;;;21.88;60.14
62038;BME280;47991;42.974;12.082;2023-05-21T08:58:20;97146.49;;;22.28;60.87
62038;BME280;47991;42.974;12.082;2023-05-21T09:00:47;97148.77;;;22.16;58.56
62038;BME280;47991;42.974;12.082;2023-05-21T09:03:15;97152.54;;;21.97;57.88
62038;BME280;47991;42.974;12.082;2023-05-21T09:05:43;97158.23;;;21.65;59.56
62038;BME280;47991;42.974;12.082;2023-05-21T09:08:16;97158.98;;;21.70;59.18
62038;BME280;47991;42.974;12.082;2023-05-21T09:10:47;97156.64;;;22.02;58.68
62038;BME280;47991;42.974;12.082;2023-05-21T09:13:16;97162.61;;;22.06;58.88
62038;BME280;47991;42.974;12.082;2023-05-21T09:15:45;97154.90;;;22.29;59.03
62038;BME280;47991;42.974;12.082;2023-05-21T09:18:13;97157.90;;;22.42;57.62
62038;BME280;47991;42.974;12.082;2023-05-21T09:20:40;97161.44;;;22.60;55.50
62038;BME280;47991;42.974;12.082;2023-05-21T09:23:08;97168.73;;;22.83;55.23
62038;BME280;47991;42.974;12.082;2023-05-21T09:25:46;97162.52;;;23.01;53.37
62038;BME280;47991;42.974;12.082;2023-05-21T09:28:14;97162.14;;;22.99;53.02
62038;BME280;47991;42.974;12.082;2023-05-21T09:30:45;97160.56;;;22.86;52.76
62038;BME280;47991;42.974;12.082;2023-05-21T09:33:24;97163.61;;;23.01;53.96
62038;BME280;47991;42.974;12.082;2023-05-21T09:35:51;97166.91;;;23.25;55.03
62038;BME280;47991;42.974;12.082;2023-05-21T09:38:21;97167.41;;;23.43;53.70
62038;BME280;47991;42.974;12.082;2023-05-21T09:40:49;97173.64;;;23.28;53.75
62038;BME280;47991;42.974;12.082;2023-05-21T09:43:17;97166.45;;;23.44;52.81
62038;BME280;47991;42.974;12.082;2023-05-21T09:45:52;97171.02;;;23.76;53.15
62038;BME280;47991;42.974;12.082;2023-05-21T09:48:35;97166.86;;;24.07;52.35
62038;BME280;47991;42.974;12.082;2023-05-21T09:51:18;97166.00;;;24.24;50.44
62038;BME280;47991;42.974;12.082;2023-05-21T09:53:50;97167.13;;;23.67;49.15
62038;BME280;47991;42.974;12.082;2023-05-21T09:56:20;97166.27;;;23.26;49.40
62038;BME280;47991;42.974;12.082;2023-05-21T09:58:56;97166.58;;;22.83;50.08
62038;BME280;47991;42.974;12.082;2023-05-21T10:01:23;97167.02;;;22.87;51.73
62038;BME280;47991;42.974;12.082;2023-05-21T10:03:55;97165.45;;;22.88;51.48
62038;BME280;47991;42.974;12.082;2023-05-21T10:06:27;97167.46;;;22.75;50.81
62038;BME280;47991;42.974;12.082;2023-05-21T10:19:31;97167.37;;;22.07;53.77
62038;BME280;47991;42.974;12.082;2023-05-21T10:25:31;97169.52;;;21.96;53.46
62038;BME280;47991;42.974;12.082;2023-05-21T10:31:54;97165.94;;;21.98;54.18
62038;BME280;47991;42.974;12.082;2023-05-21T10:34:22;97168.13;;;22.04;55.69
62038;BME280;47991;42.974;12.082;2023-05-21T10:36:49;97171.05;;;22.16;56.69
62038;BME280;47991;42.974;12.082;2023-05-21T10:39:18;97170.98;;;22.26;55.40
62038;BME280;47991;42.974;12.082;2023-05-21T10:42:23;97162.52;;;22.31;53.88
62038;BME280;47991;42.974;12.082;2023-05-21T10:47:52;97159.13;;;22.43;55.10
62038;BME280;47991;42.974;12.082;2023-05-21T10:53:31;97156.13;;;22.50;56.20
62038;BME280;47991;42.974;12.082;2023-05-21T10:56:18;97154.50;;;22.55;56.28
62038;BME280;47991;42.974;12.082;2023-05-21T11:01:40;97155.88;;;22.68;57.05
62038;BME280;47991;42.974;12.082;2023-05-21T11:04:07;97151.28;;;22.75;57.36
62038;BME280;47991;42.974;12.082;2023-05-21T11:06:33;97147.07;;;22.76;57.07
62038;BME280;47991;42.974;12.082;2023-05-21T11:09:12;97141.56;;;22.79;56.60
62038;BME280;47991;42.974;12.082;2023-05-21T11:11:48;97143.69;;;22.83;56.85
62038;BME280;47991;42.974;12.082;2023-05-21T11:14:36;97143.42;;;22.89;56.31
62038;BME280;47991;42.974;12.082;2023-05-21T11:22:28;97145.73;;;22.68;56.71
62038;BME280;47991;42.974;12.082;2023-05-21T11:25:00;97142.03;;;22.57;53.84
62038;BME280;47991;42.974;12.082;2023-05-21T11:27:37;97140.29;;;22.52;54.59
62038;BME280;47991;42.974;12.082;2023-05-21T11:30:16;97136.77;;;22.51;55.54
62038;BME280;47991;42.974;12.082;2023-05-21T11:35:59;97125.20;;;22.47;53.19
62038;BME280;47991;42.974;12.082;2023-05-21T11:38:31;97126.54;;;22.32;52.55
62038;BME280;47991;42.974;12.082;2023-05-21T11:41:04;97130.82;;;22.20;51.63
62038;BME280;47991;42.974;12.082;2023-05-21T11:43:31;97128.96;;;22.14;51.92
62038;BME280;47991;42.974;12.082;2023-05-21T11:45:58;97133.77;;;22.01;51.90
62038;BME280;47991;42.974;12.082;2023-05-21T11:48:24;97139.00;;;22.08;52.42
62038;BME280;47991;42.974;12.082;2023-05-21T11:50:51;97138.80;;;22.08;52.05
62038;BME280;47991;42.974;12.082;2023-05-21T11:53:18;97139.87;;;22.02;51.55
62038;BME280;47991;42.974;12.082;2023-05-21T11:55:45;97143.27;;;21.94;52.07
62038;BME280;47991;42.974;12.082;2023-05-21T11:58:13;97143.80;;;21.98;52.89
62038;BME280;47991;42.974;12.082;2023-05-21T12:00:42;97144.30;;;21.99;52.66
62038;BME280;47991;42.974;12.082;2023-05-21T12:03:12;97142.08;;;21.99;52.72
62038;BME280;47991;42.974;12.082;2023-05-21T12:05:48;97135.30;;;22.11;52.57
62038;BME280;47991;42.974;12.082;2023-05-21T12:08:24;97137.38;;;22.19;52.30
62038;BME280;47991;42.974;12.082;2023-05-21T12:10:58;97139.15;;;22.21;51.83
62038;BME280;47991;42.974;12.082;2023-05-21T12:13:25;97138.97;;;22.09;51.99
62038;BME280;47991;42.974;12.082;2023-05-21T12:15:52;97137.25;;;22.05;51.95
62038;BME280;47991;42.974;12.082;2023-05-21T12:18:20;97136.48;;;22.04;52.28
62038;BME280;47991;42.974;12.082;2023-05-21T12:20:46;97134.95;;;22.13;51.61
62038;BME280;47991;42.974;12.082;2023-05-21T12:23:22;97129.13;;;22.48;52.99
62038;BME280;47991;42.974;12.082;2023-05-21T12:25:48;97125.15;;;22.79;52.94
62038;BME280;47991;42.974;12.082;2023-05-21T12:28:14;97116.10;;;23.12;50.38
62038;BME280;47991;42.974;12.082;2023-05-21T12:30:41;97112.23;;;23.37;49.71
62038;BME280;47991;42.974;12.082;2023-05-21T12:33:07;97111.23;;;23.62;50.39
62038;BME280;47991;42.974;12.082;2023-05-21T12:35:33;97108.77;;;23.81;48.57
62038;BME280;47991;42.974;12.082;2023-05-21T12:38:00;97110.91;;;23.85;48.77
62038;BME280;47991;42.974;12.082;2023-05-21T12:40:34;97111.56;;;23.76;47.62
62038;BME280;47991;42.974;12.082;2023-05-21T12:43:02;97109.37;;;23.77;46.95
62038;BME280;47991;42.974;12.082;2023-05-21T12:45:30;97108.58;;;23.79;45.77
62038;BME280;47991;42.974;12.082;2023-05-21T12:48:00;97108.80;;;23.87;46.49
62038;BME280;47991;42.974;12.082;2023-05-21T12:50:27;97107.30;;;23.84;46.09
62038;BME280;47991;42.974;12.082;2023-05-21T12:52:53;97108.34;;;23.90;47.51
62038;BME280;47991;42.974;12.082;2023-05-21T12:55:22;97107.57;;;23.90;47.05
62038;BME280;47991;42.974;12.082;2023-05-21T12:57:49;97105.70;;;24.22;46.66
62038;BME280;47991;42.974;12.082;2023-05-21T13:00:22;97099.05;;;24.60;47.24
62038;BME280;47991;42.974;12.082;2023-05-21T13:02:50;97098.09;;;24.94;46.74
62038;BME280;47991;42.974;12.082;2023-05-21T13:05:17;97092.43;;;25.17;45.88
62038;BME280;47991;42.974;12.082;2023-05-21T13:07:44;97094.94;;;25.23;45.02
62038;BME280;47991;42.974;12.082;2023-05-21T13:10:12;97094.35;;;25.34;44.91
62038;BME280;47991;42.974;12.082;2023-05-21T13:12:38;97093.27;;;25.05;45.15
62038;BME280;47991;42.974;12.082;2023-05-21T13:15:05;97092.79;;;24.82;45.50
62038;BME280;47991;42.974;12.082;2023-05-21T13:17:33;97096.32;;;24.73;45.22
62038;BME280;47991;42.974;12.082;2023-05-21T13:22:36;97099.64;;;24.34;44.89
62038;BME280;47991;42.974;12.082;2023-05-21T13:25:10;97095.55;;;24.51;46.04
62038;BME280;47991;42.974;12.082;2023-05-21T13:27:41;97096.35;;;24.50;46.27
62038;BME280;47991;42.974;12.082;2023-05-21T13:30:08;97100.17;;;24.19;47.52
62038;BME280;47991;42.974;12.082;2023-05-21T13:32:37;97103.80;;;24.34;47.45
62038;BME280;47991;42.974;12.082;2023-05-21T13:35:06;97103.02;;;24.35;47.25
62038;BME280;47991;42.974;12.082;2023-05-21T13:37:33;97095.77;;;24.33;47.80